This is the latest recevied weather packets stored in our database for station/object OE2SWM. If no packets are shown the sender has not sent any weather packets the latest 1 day(s).
| Time | Temp. | Humidity | Pressure | Rain* | Wind** | Luminosity | Snow |
|---|---|---|---|---|---|---|---|
| 1778102400 | 10.56° C | 78% | 965 hPa | 0 mm | - | - | - |
| 1778097600 | 12.78° C | 70% | 964 hPa | 0 mm | - | - | - |
| 1778096400 | 12.78° C | 68% | 964 hPa | 0 mm | - | - | - |
| 1778094600 | 13.89° C | 64% | 964 hPa | 0 mm | - | - | - |
| 1778092200 | 13.89° C | 63% | 963 hPa | 0 mm | - | - | - |
| 1778089200 | 15° C | 63% | 963 hPa | 0 mm | - | - | - |
| 1778085000 | 16.67° C | 57% | 962 hPa | 0 mm | - | - | - |
| 1778079000 | 16.67° C | 55% | 963 hPa | 0 mm | - | - | - |
| 1778076600 | 17.78° C | 54% | 963 hPa | 0 mm | - | - | - |
| 1778074200 | 18.89° C | 52% | 963 hPa | 0 mm | - | - | - |
| 1778070600 | 17.78° C | 52% | 963 hPa | 0 mm | - | - | - |
| 1778069400 | 17.78° C | 52% | 963 hPa | 0 mm | - | - | - |
| 1778068200 | 17.78° C | 51% | 963 hPa | 0 mm | - | - | - |
| 1778067000 | 18.89° C | 49% | 963 hPa | 0 mm | - | - | - |
| 1778066400 | 20° C | 50% | 963 hPa | 0 mm | - | - | - |
| 1778065800 | 18.89° C | 51% | 963 hPa | 0 mm | - | - | - |
| 1778065200 | 18.89° C | 52% | 963 hPa | 0 mm | - | - | - |
| 1778064600 | 18.89° C | 54% | 963 hPa | 0 mm | - | - | - |
| 1778063400 | 16.67° C | 58% | 963 hPa | 0 mm | - | - | - |
| 1778062800 | 15.56° C | 59% | 964 hPa | 0 mm | - | - | - |
| 1778062200 | 15.56° C | 64% | 964 hPa | 0 mm | - | - | - |
| 1778061600 | 13.89° C | 65% | 964 hPa | 0 mm | - | - | - |
| 1778061000 | 15° C | 65% | 964 hPa | 0 mm | - | - | - |
| 1778060400 | 13.89° C | 69% | 964 hPa | 0 mm | - | - | - |
| 1778059800 | 12.78° C | 69% | 964 hPa | 0 mm | - | - | - |
* Rain latest hour (hover to see other rain measurements)
** Current wind speed in m/s (hover to see current wind gust speed)